Aviation Digital Data Service (ADDS)

Output produced by METARs form (0400 UTC 24 January 2019)
found at http://www.aviationweather.gov/metar/data/
 
Forecast for: FAKM (KIMBERLEY/BJ VOR, ZA)
Text: TAF FAKM 240300Z 2404/2415 13006KT CAVOK TX37/2412Z TN18/2404Z
Forecast period: 0400 to 0900 UTC 24 January 2019
Forecast type: FROM: standard forecast or significant change
Winds: from the SE (130 degrees) at 7 MPH (6 knots; 3.1 m/s)
Visibility: 6 or more miles 10+ km)
Ceiling: unknown
Clouds: missing
Weather: no significant weather forecast for this period
Text: BECMG 2409/2411 26012KT
Forecast period: 0900 to 1500 UTC 24 January 2019
Forecast type: BECOMING: Conditions expected to become as follows by 1100 UTC 24 January 2019
Winds: from the W (260 degrees) at 14 MPH (12 knots; 6.2 m/s)
Visibility: 6 or more miles 10+ km)
Ceiling: unknown
Clouds: missing
Weather: no significant weather forecast for this period